sensor_id;sensor_type;location;lat;lon;timestamp;P1;durP1;ratioP1;P2;durP2;ratioP2
65751;SDS011;52486;51.098;13.770;2023-06-14T00:00:14;1.50;;;1.40;;
65751;SDS011;52486;51.098;13.770;2023-06-14T00:02:41;3.33;;;1.60;;
65751;SDS011;52486;51.098;13.770;2023-06-14T00:05:07;1.98;;;1.50;;
65751;SDS011;52486;51.098;13.770;2023-06-14T00:07:37;5.43;;;1.50;;
65751;SDS011;52486;51.098;13.770;2023-06-14T00:10:07;3.20;;;1.40;;
65751;SDS011;52486;51.098;13.770;2023-06-14T00:12:33;1.45;;;1.27;;
65751;SDS011;52486;51.098;13.770;2023-06-14T00:15:00;1.83;;;1.38;;
65751;SDS011;52486;51.098;13.770;2023-06-14T00:17:27;1.77;;;1.50;;
65751;SDS011;52486;51.098;13.770;2023-06-14T00:19:56;1.80;;;1.43;;
65751;SDS011;52486;51.098;13.770;2023-06-14T00:22:23;2.28;;;1.50;;
65751;SDS011;52486;51.098;13.770;2023-06-14T00:24:53;1.60;;;1.50;;
65751;SDS011;52486;51.098;13.770;2023-06-14T00:27:19;2.65;;;1.60;;
65751;SDS011;52486;51.098;13.770;2023-06-14T00:29:45;2.20;;;1.42;;
65751;SDS011;52486;51.098;13.770;2023-06-14T00:32:11;1.40;;;1.30;;
65751;SDS011;52486;51.098;13.770;2023-06-14T00:34:37;2.15;;;1.50;;
65751;SDS011;52486;51.098;13.770;2023-06-14T00:37:03;1.75;;;1.58;;
65751;SDS011;52486;51.098;13.770;2023-06-14T00:39:29;2.08;;;1.70;;
65751;SDS011;52486;51.098;13.770;2023-06-14T00:41:54;3.88;;;1.60;;
65751;SDS011;52486;51.098;13.770;2023-06-14T00:44:20;2.20;;;1.50;;
65751;SDS011;52486;51.098;13.770;2023-06-14T00:46:47;2.63;;;1.50;;
65751;SDS011;52486;51.098;13.770;2023-06-14T00:49:15;2.05;;;1.40;;
65751;SDS011;52486;51.098;13.770;2023-06-14T00:51:43;1.60;;;1.50;;
65751;SDS011;52486;51.098;13.770;2023-06-14T00:54:09;2.95;;;1.58;;
65751;SDS011;52486;51.098;13.770;2023-06-14T00:56:37;6.82;;;1.60;;
65751;SDS011;52486;51.098;13.770;2023-06-14T00:59:04;1.80;;;1.70;;
65751;SDS011;52486;51.098;13.770;2023-06-14T01:01:31;5.53;;;1.38;;
65751;SDS011;52486;51.098;13.770;2023-06-14T01:04:00;1.92;;;1.65;;
65751;SDS011;52486;51.098;13.770;2023-06-14T01:11:46;1.63;;;1.52;;
65751;SDS011;52486;51.098;13.770;2023-06-14T01:14:13;1.60;;;1.50;;
65751;SDS011;52486;51.098;13.770;2023-06-14T01:16:39;2.28;;;1.55;;
65751;SDS011;52486;51.098;13.770;2023-06-14T01:19:07;6.97;;;1.58;;
65751;SDS011;52486;51.098;13.770;2023-06-14T01:21:37;1.50;;;1.40;;
65751;SDS011;52486;51.098;13.770;2023-06-14T01:24:07;2.08;;;1.60;;
65751;SDS011;52486;51.098;13.770;2023-06-14T01:26:34;2.17;;;1.52;;
65751;SDS011;52486;51.098;13.770;2023-06-14T01:29:02;3.17;;;1.50;;
65751;SDS011;52486;51.098;13.770;2023-06-14T01:31:28;1.85;;;1.50;;
65751;SDS011;52486;51.098;13.770;2023-06-14T01:34:05;1.88;;;1.52;;
65751;SDS011;52486;51.098;13.770;2023-06-14T01:36:31;1.98;;;1.77;;
65751;SDS011;52486;51.098;13.770;2023-06-14T01:38:58;1.70;;;1.60;;
65751;SDS011;52486;51.098;13.770;2023-06-14T01:41:24;2.50;;;1.67;;
65751;SDS011;52486;51.098;13.770;2023-06-14T01:43:51;2.20;;;1.80;;
65751;SDS011;52486;51.098;13.770;2023-06-14T01:46:18;1.85;;;1.75;;
65751;SDS011;52486;51.098;13.770;2023-06-14T01:48:45;2.65;;;2.38;;
65751;SDS011;52486;51.098;13.770;2023-06-14T01:51:11;4.55;;;1.90;;
65751;SDS011;52486;51.098;13.770;2023-06-14T01:53:37;3.15;;;1.98;;
65751;SDS011;52486;51.098;13.770;2023-06-14T01:56:03;6.40;;;1.77;;
65751;SDS011;52486;51.098;13.770;2023-06-14T01:58:29;4.93;;;2.83;;
65751;SDS011;52486;51.098;13.770;2023-06-14T02:00:56;2.67;;;1.70;;
65751;SDS011;52486;51.098;13.770;2023-06-14T02:03:23;2.53;;;1.70;;
65751;SDS011;52486;51.098;13.770;2023-06-14T02:05:49;3.10;;;1.70;;
65751;SDS011;52486;51.098;13.770;2023-06-14T02:08:15;1.80;;;1.55;;
65751;SDS011;52486;51.098;13.770;2023-06-14T02:10:41;1.70;;;1.60;;
65751;SDS011;52486;51.098;13.770;2023-06-14T02:13:07;1.60;;;1.50;;
65751;SDS011;52486;51.098;13.770;2023-06-14T02:15:33;2.28;;;1.73;;
65751;SDS011;52486;51.098;13.770;2023-06-14T02:18:03;2.33;;;1.90;;
65751;SDS011;52486;51.098;13.770;2023-06-14T02:20:30;4.60;;;1.73;;
65751;SDS011;52486;51.098;13.770;2023-06-14T02:22:56;1.75;;;1.60;;
65751;SDS011;52486;51.098;13.770;2023-06-14T02:25:22;2.00;;;1.80;;
65751;SDS011;52486;51.098;13.770;2023-06-14T02:27:48;2.08;;;1.60;;
65751;SDS011;52486;51.098;13.770;2023-06-14T02:30:15;2.28;;;1.63;;
65751;SDS011;52486;51.098;13.770;2023-06-14T02:32:41;1.67;;;1.58;;
65751;SDS011;52486;51.098;13.770;2023-06-14T02:35:08;2.97;;;1.90;;
65751;SDS011;52486;51.098;13.770;2023-06-14T02:37:35;2.05;;;1.70;;
65751;SDS011;52486;51.098;13.770;2023-06-14T02:40:01;2.15;;;1.52;;
65751;SDS011;52486;51.098;13.770;2023-06-14T02:42:27;2.60;;;1.50;;
65751;SDS011;52486;51.098;13.770;2023-06-14T02:44:53;1.88;;;1.70;;
65751;SDS011;52486;51.098;13.770;2023-06-14T02:47:19;2.20;;;1.67;;
65751;SDS011;52486;51.098;13.770;2023-06-14T02:49:45;1.80;;;1.70;;
65751;SDS011;52486;51.098;13.770;2023-06-14T02:52:11;1.50;;;1.40;;
65751;SDS011;52486;51.098;13.770;2023-06-14T02:54:37;1.70;;;1.60;;
65751;SDS011;52486;51.098;13.770;2023-06-14T02:57:03;1.90;;;1.70;;
65751;SDS011;52486;51.098;13.770;2023-06-14T02:59:32;1.55;;;1.45;;
65751;SDS011;52486;51.098;13.770;2023-06-14T03:01:57;3.00;;;1.70;;
65751;SDS011;52486;51.098;13.770;2023-06-14T03:04:23;1.52;;;1.42;;
65751;SDS011;52486;51.098;13.770;2023-06-14T03:06:51;1.58;;;1.48;;
65751;SDS011;52486;51.098;13.770;2023-06-14T03:09:18;5.82;;;1.58;;
65751;SDS011;52486;51.098;13.770;2023-06-14T03:11:45;1.67;;;1.58;;
65751;SDS011;52486;51.098;13.770;2023-06-14T03:14:11;1.80;;;1.70;;
65751;SDS011;52486;51.098;13.770;2023-06-14T03:16:38;2.45;;;2.00;;
65751;SDS011;52486;51.098;13.770;2023-06-14T03:19:05;1.70;;;1.60;;
65751;SDS011;52486;51.098;13.770;2023-06-14T03:21:31;2.33;;;1.70;;
65751;SDS011;52486;51.098;13.770;2023-06-14T03:23:57;2.00;;;1.80;;
65751;SDS011;52486;51.098;13.770;2023-06-14T03:26:23;2.70;;;1.80;;
65751;SDS011;52486;51.098;13.770;2023-06-14T03:28:50;1.83;;;1.60;;
65751;SDS011;52486;51.098;13.770;2023-06-14T03:31:16;2.25;;;1.83;;
65751;SDS011;52486;51.098;13.770;2023-06-14T03:33:42;2.15;;;1.50;;
65751;SDS011;52486;51.098;13.770;2023-06-14T03:36:08;1.95;;;1.50;;
65751;SDS011;52486;51.098;13.770;2023-06-14T03:38:34;3.63;;;1.65;;
65751;SDS011;52486;51.098;13.770;2023-06-14T03:41:00;4.03;;;1.83;;
65751;SDS011;52486;51.098;13.770;2023-06-14T03:43:26;1.63;;;1.52;;
65751;SDS011;52486;51.098;13.770;2023-06-14T03:45:52;4.35;;;1.70;;
65751;SDS011;52486;51.098;13.770;2023-06-14T03:48:18;2.60;;;1.65;;
65751;SDS011;52486;51.098;13.770;2023-06-14T03:50:44;2.03;;;1.90;;
65751;SDS011;52486;51.098;13.770;2023-06-14T03:53:10;2.63;;;1.67;;
65751;SDS011;52486;51.098;13.770;2023-06-14T03:55:35;2.58;;;1.55;;
65751;SDS011;52486;51.098;13.770;2023-06-14T03:58:03;2.38;;;1.60;;
65751;SDS011;52486;51.098;13.770;2023-06-14T04:00:29;3.95;;;1.75;;
65751;SDS011;52486;51.098;13.770;2023-06-14T04:02:55;1.90;;;1.75;;
65751;SDS011;52486;51.098;13.770;2023-06-14T04:05:21;2.33;;;1.67;;
65751;SDS011;52486;51.098;13.770;2023-06-14T04:07:48;1.90;;;1.70;;
65751;SDS011;52486;51.098;13.770;2023-06-14T04:10:15;1.67;;;1.58;;
65751;SDS011;52486;51.098;13.770;2023-06-14T04:12:41;2.47;;;1.60;;
65751;SDS011;52486;51.098;13.770;2023-06-14T04:15:08;3.33;;;1.95;;
65751;SDS011;52486;51.098;13.770;2023-06-14T04:17:34;1.73;;;1.58;;
65751;SDS011;52486;51.098;13.770;2023-06-14T04:20:00;2.90;;;1.50;;
65751;SDS011;52486;51.098;13.770;2023-06-14T04:22:29;2.50;;;1.60;;
65751;SDS011;52486;51.098;13.770;2023-06-14T04:24:55;2.75;;;1.50;;
65751;SDS011;52486;51.098;13.770;2023-06-14T04:27:21;1.70;;;1.42;;
65751;SDS011;52486;51.098;13.770;2023-06-14T04:29:53;3.25;;;1.77;;
65751;SDS011;52486;51.098;13.770;2023-06-14T04:32:28;1.70;;;1.60;;
65751;SDS011;52486;51.098;13.770;2023-06-14T04:34:59;2.60;;;1.63;;
65751;SDS011;52486;51.098;13.770;2023-06-14T04:37:27;2.78;;;1.88;;
65751;SDS011;52486;51.098;13.770;2023-06-14T04:39:54;4.22;;;1.55;;
65751;SDS011;52486;51.098;13.770;2023-06-14T04:42:21;2.13;;;1.70;;
65751;SDS011;52486;51.098;13.770;2023-06-14T04:44:50;1.98;;;1.60;;
65751;SDS011;52486;51.098;13.770;2023-06-14T04:47:17;2.00;;;1.80;;
65751;SDS011;52486;51.098;13.770;2023-06-14T04:49:43;2.80;;;1.70;;
65751;SDS011;52486;51.098;13.770;2023-06-14T04:52:09;1.88;;;1.70;;
65751;SDS011;52486;51.098;13.770;2023-06-14T04:54:36;2.17;;;1.65;;
65751;SDS011;52486;51.098;13.770;2023-06-14T04:57:07;4.60;;;1.92;;
65751;SDS011;52486;51.098;13.770;2023-06-14T04:59:34;2.75;;;1.88;;
65751;SDS011;52486;51.098;13.770;2023-06-14T05:02:01;3.63;;;2.20;;
65751;SDS011;52486;51.098;13.770;2023-06-14T05:04:26;3.83;;;2.13;;
65751;SDS011;52486;51.098;13.770;2023-06-14T05:06:53;2.88;;;2.00;;
65751;SDS011;52486;51.098;13.770;2023-06-14T05:09:22;2.20;;;2.00;;
65751;SDS011;52486;51.098;13.770;2023-06-14T05:11:48;2.72;;;2.20;;
65751;SDS011;52486;51.098;13.770;2023-06-14T05:14:15;5.07;;;2.50;;
65751;SDS011;52486;51.098;13.770;2023-06-14T05:16:41;3.03;;;2.72;;
65751;SDS011;52486;51.098;13.770;2023-06-14T05:19:08;2.85;;;2.40;;
65751;SDS011;52486;51.098;13.770;2023-06-14T05:21:33;2.45;;;2.20;;
65751;SDS011;52486;51.098;13.770;2023-06-14T05:23:59;3.58;;;2.15;;
65751;SDS011;52486;51.098;13.770;2023-06-14T05:26:26;2.85;;;1.95;;
65751;SDS011;52486;51.098;13.770;2023-06-14T05:28:54;4.32;;;2.38;;
65751;SDS011;52486;51.098;13.770;2023-06-14T05:31:21;5.20;;;2.20;;
65751;SDS011;52486;51.098;13.770;2023-06-14T05:33:48;2.40;;;2.20;;
65751;SDS011;52486;51.098;13.770;2023-06-14T05:36:14;2.80;;;2.17;;
65751;SDS011;52486;51.098;13.770;2023-06-14T05:38:40;3.22;;;2.15;;
65751;SDS011;52486;51.098;13.770;2023-06-14T05:41:06;5.47;;;2.03;;
65751;SDS011;52486;51.098;13.770;2023-06-14T05:43:32;2.42;;;2.00;;
65751;SDS011;52486;51.098;13.770;2023-06-14T05:45:57;2.55;;;2.33;;
65751;SDS011;52486;51.098;13.770;2023-06-14T05:48:23;3.75;;;2.00;;
65751;SDS011;52486;51.098;13.770;2023-06-14T05:50:49;2.53;;;2.08;;
65751;SDS011;52486;51.098;13.770;2023-06-14T05:53:14;2.00;;;1.90;;
65751;SDS011;52486;51.098;13.770;2023-06-14T05:55:40;3.22;;;2.10;;
65751;SDS011;52486;51.098;13.770;2023-06-14T05:58:06;4.30;;;2.22;;
65751;SDS011;52486;51.098;13.770;2023-06-14T06:00:32;2.22;;;2.03;;
65751;SDS011;52486;51.098;13.770;2023-06-14T06:02:58;3.05;;;2.38;;
65751;SDS011;52486;51.098;13.770;2023-06-14T06:05:24;2.63;;;2.08;;
65751;SDS011;52486;51.098;13.770;2023-06-14T06:07:49;3.30;;;1.98;;
65751;SDS011;52486;51.098;13.770;2023-06-14T06:10:15;2.90;;;2.10;;
65751;SDS011;52486;51.098;13.770;2023-06-14T06:12:41;3.95;;;2.30;;
65751;SDS011;52486;51.098;13.770;2023-06-14T06:15:08;4.03;;;2.65;;
65751;SDS011;52486;51.098;13.770;2023-06-14T06:17:37;3.25;;;2.10;;
65751;SDS011;52486;51.098;13.770;2023-06-14T06:20:03;3.53;;;2.20;;
65751;SDS011;52486;51.098;13.770;2023-06-14T06:22:31;6.32;;;2.03;;
65751;SDS011;52486;51.098;13.770;2023-06-14T06:24:56;3.05;;;2.08;;
65751;SDS011;52486;51.098;13.770;2023-06-14T06:27:22;2.10;;;1.90;;
65751;SDS011;52486;51.098;13.770;2023-06-14T06:29:48;2.35;;;2.13;;
65751;SDS011;52486;51.098;13.770;2023-06-14T06:32:15;4.50;;;2.20;;
65751;SDS011;52486;51.098;13.770;2023-06-14T06:34:40;4.10;;;1.73;;
65751;SDS011;52486;51.098;13.770;2023-06-14T06:37:07;6.00;;;2.20;;
65751;SDS011;52486;51.098;13.770;2023-06-14T06:39:33;2.72;;;1.70;;
65751;SDS011;52486;51.098;13.770;2023-06-14T06:41:59;5.10;;;1.95;;
65751;SDS011;52486;51.098;13.770;2023-06-14T06:44:25;2.20;;;2.00;;
65751;SDS011;52486;51.098;13.770;2023-06-14T06:46:51;2.33;;;1.80;;
65751;SDS011;52486;51.098;13.770;2023-06-14T06:49:17;5.53;;;2.10;;
65751;SDS011;52486;51.098;13.770;2023-06-14T06:51:43;2.65;;;1.98;;
65751;SDS011;52486;51.098;13.770;2023-06-14T06:54:10;5.93;;;2.55;;
65751;SDS011;52486;51.098;13.770;2023-06-14T06:56:35;2.45;;;2.10;;
65751;SDS011;52486;51.098;13.770;2023-06-14T06:59:02;3.88;;;1.98;;
65751;SDS011;52486;51.098;13.770;2023-06-14T07:01:28;3.85;;;2.28;;
65751;SDS011;52486;51.098;13.770;2023-06-14T07:03:54;4.35;;;2.20;;
65751;SDS011;52486;51.098;13.770;2023-06-14T07:06:21;8.70;;;1.90;;
65751;SDS011;52486;51.098;13.770;2023-06-14T07:08:47;7.43;;;2.30;;
65751;SDS011;52486;51.098;13.770;2023-06-14T07:11:15;2.08;;;1.90;;
65751;SDS011;52486;51.098;13.770;2023-06-14T07:13:41;5.45;;;2.30;;
65751;SDS011;52486;51.098;13.770;2023-06-14T07:16:07;4.22;;;2.00;;
65751;SDS011;52486;51.098;13.770;2023-06-14T07:18:33;4.57;;;2.15;;
65751;SDS011;52486;51.098;13.770;2023-06-14T07:21:00;2.40;;;2.17;;
65751;SDS011;52486;51.098;13.770;2023-06-14T07:23:26;4.53;;;1.98;;
65751;SDS011;52486;51.098;13.770;2023-06-14T07:25:51;9.32;;;2.30;;
65751;SDS011;52486;51.098;13.770;2023-06-14T07:28:17;6.07;;;2.20;;
65751;SDS011;52486;51.098;13.770;2023-06-14T07:30:44;4.85;;;1.90;;
65751;SDS011;52486;51.098;13.770;2023-06-14T07:33:10;2.28;;;1.90;;
65751;SDS011;52486;51.098;13.770;2023-06-14T07:35:37;4.20;;;2.22;;
65751;SDS011;52486;51.098;13.770;2023-06-14T07:38:03;2.40;;;2.20;;
65751;SDS011;52486;51.098;13.770;2023-06-14T07:40:28;2.08;;;1.90;;
65751;SDS011;52486;51.098;13.770;2023-06-14T07:42:54;4.80;;;2.05;;
65751;SDS011;52486;51.098;13.770;2023-06-14T07:45:20;3.53;;;1.80;;
65751;SDS011;52486;51.098;13.770;2023-06-14T07:47:46;3.78;;;2.30;;
65751;SDS011;52486;51.098;13.770;2023-06-14T07:50:11;3.65;;;2.10;;
65751;SDS011;52486;51.098;13.770;2023-06-14T07:52:38;3.28;;;2.00;;
65751;SDS011;52486;51.098;13.770;2023-06-14T07:55:04;5.88;;;2.15;;
65751;SDS011;52486;51.098;13.770;2023-06-14T07:57:30;5.25;;;2.15;;
65751;SDS011;52486;51.098;13.770;2023-06-14T07:59:56;3.35;;;2.30;;
65751;SDS011;52486;51.098;13.770;2023-06-14T08:02:22;3.10;;;2.15;;
65751;SDS011;52486;51.098;13.770;2023-06-14T08:04:47;8.52;;;2.28;;
65751;SDS011;52486;51.098;13.770;2023-06-14T08:07:13;2.90;;;2.03;;
65751;SDS011;52486;51.098;13.770;2023-06-14T08:09:40;8.77;;;2.53;;
65751;SDS011;52486;51.098;13.770;2023-06-14T08:12:06;2.35;;;2.10;;
65751;SDS011;52486;51.098;13.770;2023-06-14T08:14:34;6.38;;;2.28;;
65751;SDS011;52486;51.098;13.770;2023-06-14T08:17:00;3.08;;;1.90;;
65751;SDS011;52486;51.098;13.770;2023-06-14T08:19:26;8.93;;;1.90;;
65751;SDS011;52486;51.098;13.770;2023-06-14T08:21:53;3.58;;;1.70;;
65751;SDS011;52486;51.098;13.770;2023-06-14T08:24:23;7.43;;;2.20;;
65751;SDS011;52486;51.098;13.770;2023-06-14T08:26:49;6.55;;;1.70;;
65751;SDS011;52486;51.098;13.770;2023-06-14T08:29:15;2.97;;;1.77;;
65751;SDS011;52486;51.098;13.770;2023-06-14T08:31:41;5.15;;;1.63;;
65751;SDS011;52486;51.098;13.770;2023-06-14T08:34:06;4.05;;;1.73;;
65751;SDS011;52486;51.098;13.770;2023-06-14T08:36:32;2.22;;;1.73;;
65751;SDS011;52486;51.098;13.770;2023-06-14T08:38:58;3.00;;;1.75;;
65751;SDS011;52486;51.098;13.770;2023-06-14T08:41:25;4.18;;;1.50;;
65751;SDS011;52486;51.098;13.770;2023-06-14T08:43:52;2.88;;;2.00;;
65751;SDS011;52486;51.098;13.770;2023-06-14T08:46:18;4.25;;;1.60;;
65751;SDS011;52486;51.098;13.770;2023-06-14T08:48:50;2.15;;;1.50;;
65751;SDS011;52486;51.098;13.770;2023-06-14T08:51:20;2.50;;;1.50;;
65751;SDS011;52486;51.098;13.770;2023-06-14T08:53:52;3.80;;;1.58;;
65751;SDS011;52486;51.098;13.770;2023-06-14T08:56:22;4.35;;;1.45;;
65751;SDS011;52486;51.098;13.770;2023-06-14T08:58:52;1.95;;;1.80;;
65751;SDS011;52486;51.098;13.770;2023-06-14T09:01:19;3.22;;;1.30;;
65751;SDS011;52486;51.098;13.770;2023-06-14T09:03:46;3.13;;;1.80;;
65751;SDS011;52486;51.098;13.770;2023-06-14T09:06:13;3.63;;;1.70;;
65751;SDS011;52486;51.098;13.770;2023-06-14T09:08:45;5.35;;;1.92;;
65751;SDS011;52486;51.098;13.770;2023-06-14T09:11:13;8.88;;;1.80;;
65751;SDS011;52486;51.098;13.770;2023-06-14T09:13:40;6.68;;;1.90;;
65751;SDS011;52486;51.098;13.770;2023-06-14T09:16:07;3.28;;;1.88;;
65751;SDS011;52486;51.098;13.770;2023-06-14T09:18:36;5.03;;;1.95;;
65751;SDS011;52486;51.098;13.770;2023-06-14T09:21:06;13.18;;;2.25;;
65751;SDS011;52486;51.098;13.770;2023-06-14T09:23:36;4.78;;;1.92;;
65751;SDS011;52486;51.098;13.770;2023-06-14T09:26:09;2.83;;;1.83;;
65751;SDS011;52486;51.098;13.770;2023-06-14T09:31:12;3.75;;;2.00;;
65751;SDS011;52486;51.098;13.770;2023-06-14T09:33:46;2.22;;;1.85;;
65751;SDS011;52486;51.098;13.770;2023-06-14T09:36:15;4.18;;;1.73;;
65751;SDS011;52486;51.098;13.770;2023-06-14T09:38:55;2.67;;;1.92;;
65751;SDS011;52486;51.098;13.770;2023-06-14T09:41:35;5.38;;;2.00;;
65751;SDS011;52486;51.098;13.770;2023-06-14T09:44:04;2.97;;;2.08;;
65751;SDS011;52486;51.098;13.770;2023-06-14T09:46:32;8.20;;;1.88;;
65751;SDS011;52486;51.098;13.770;2023-06-14T09:48:58;2.40;;;1.80;;
65751;SDS011;52486;51.098;13.770;2023-06-14T09:51:25;3.55;;;2.00;;
65751;SDS011;52486;51.098;13.770;2023-06-14T09:53:52;4.85;;;2.00;;
65751;SDS011;52486;51.098;13.770;2023-06-14T09:56:21;4.40;;;2.15;;
65751;SDS011;52486;51.098;13.770;2023-06-14T09:58:48;2.60;;;1.95;;
65751;SDS011;52486;51.098;13.770;2023-06-14T10:01:16;2.83;;;2.10;;
65751;SDS011;52486;51.098;13.770;2023-06-14T10:03:43;4.18;;;1.85;;
65751;SDS011;52486;51.098;13.770;2023-06-14T10:06:10;2.38;;;2.00;;
65751;SDS011;52486;51.098;13.770;2023-06-14T10:08:36;3.50;;;1.80;;
65751;SDS011;52486;51.098;13.770;2023-06-14T10:11:03;2.55;;;1.88;;
65751;SDS011;52486;51.098;13.770;2023-06-14T10:13:31;3.08;;;2.08;;
65751;SDS011;52486;51.098;13.770;2023-06-14T10:16:12;3.22;;;1.90;;
65751;SDS011;52486;51.098;13.770;2023-06-14T10:23:52;2.78;;;1.70;;
65751;SDS011;52486;51.098;13.770;2023-06-14T10:26:20;4.43;;;1.80;;
65751;SDS011;52486;51.098;13.770;2023-06-14T10:28:56;5.07;;;1.98;;
65751;SDS011;52486;51.098;13.770;2023-06-14T10:31:23;2.92;;;1.80;;
65751;SDS011;52486;51.098;13.770;2023-06-14T10:34:05;3.83;;;1.70;;
65751;SDS011;52486;51.098;13.770;2023-06-14T10:36:31;1.90;;;1.75;;
65751;SDS011;52486;51.098;13.770;2023-06-14T10:39:04;1.77;;;1.65;;
65751;SDS011;52486;51.098;13.770;2023-06-14T10:41:31;3.08;;;1.65;;
65751;SDS011;52486;51.098;13.770;2023-06-14T10:46:59;2.78;;;1.80;;
65751;SDS011;52486;51.098;13.770;2023-06-14T10:52:10;7.53;;;1.83;;
65751;SDS011;52486;51.098;13.770;2023-06-14T10:55:04;2.45;;;1.80;;
65751;SDS011;52486;51.098;13.770;2023-06-14T10:57:34;9.57;;;1.97;;
65751;SDS011;52486;51.098;13.770;2023-06-14T11:00:00;6.93;;;2.10;;
65751;SDS011;52486;51.098;13.770;2023-06-14T11:02:48;4.40;;;1.98;;
65751;SDS011;52486;51.098;13.770;2023-06-14T11:05:23;6.05;;;2.30;;
65751;SDS011;52486;51.098;13.770;2023-06-14T11:10:38;3.43;;;2.30;;
65751;SDS011;52486;51.098;13.770;2023-06-14T11:13:06;6.13;;;2.25;;
65751;SDS011;52486;51.098;13.770;2023-06-14T11:15:34;2.97;;;2.10;;
65751;SDS011;52486;51.098;13.770;2023-06-14T11:18:00;5.70;;;2.47;;
65751;SDS011;52486;51.098;13.770;2023-06-14T11:20:29;8.48;;;2.17;;
65751;SDS011;52486;51.098;13.770;2023-06-14T11:22:55;8.55;;;2.60;;
65751;SDS011;52486;51.098;13.770;2023-06-14T11:25:21;8.60;;;2.30;;
65751;SDS011;52486;51.098;13.770;2023-06-14T11:27:51;6.82;;;2.30;;
65751;SDS011;52486;51.098;13.770;2023-06-14T11:30:17;8.20;;;2.60;;
65751;SDS011;52486;51.098;13.770;2023-06-14T11:32:46;10.30;;;2.85;;
65751;SDS011;52486;51.098;13.770;2023-06-14T11:35:13;9.50;;;2.47;;
65751;SDS011;52486;51.098;13.770;2023-06-14T11:37:39;4.60;;;2.40;;
65751;SDS011;52486;51.098;13.770;2023-06-14T11:40:07;6.32;;;2.20;;
65751;SDS011;52486;51.098;13.770;2023-06-14T11:42:38;6.07;;;2.40;;
65751;SDS011;52486;51.098;13.770;2023-06-14T11:45:06;5.07;;;2.20;;
65751;SDS011;52486;51.098;13.770;2023-06-14T11:47:33;5.55;;;2.45;;
65751;SDS011;52486;51.098;13.770;2023-06-14T11:50:00;2.85;;;2.13;;
65751;SDS011;52486;51.098;13.770;2023-06-14T11:52:26;7.32;;;2.63;;
65751;SDS011;52486;51.098;13.770;2023-06-14T11:54:53;4.05;;;2.40;;
65751;SDS011;52486;51.098;13.770;2023-06-14T11:57:18;4.53;;;2.25;;
65751;SDS011;52486;51.098;13.770;2023-06-14T11:59:45;4.47;;;2.08;;
65751;SDS011;52486;51.098;13.770;2023-06-14T12:02:17;5.63;;;2.35;;
65751;SDS011;52486;51.098;13.770;2023-06-14T12:04:46;9.35;;;2.10;;
65751;SDS011;52486;51.098;13.770;2023-06-14T12:07:13;8.35;;;2.00;;
65751;SDS011;52486;51.098;13.770;2023-06-14T12:10:22;4.43;;;2.30;;
65751;SDS011;52486;51.098;13.770;2023-06-14T12:12:34;8.15;;;2.05;;
65751;SDS011;52486;51.098;13.770;2023-06-14T12:15:02;4.38;;;2.50;;
65751;SDS011;52486;51.098;13.770;2023-06-14T12:17:31;4.07;;;2.25;;
65751;SDS011;52486;51.098;13.770;2023-06-14T12:19:57;5.38;;;2.25;;
65751;SDS011;52486;51.098;13.770;2023-06-14T12:22:23;19.15;;;2.55;;
65751;SDS011;52486;51.098;13.770;2023-06-14T12:24:49;3.83;;;2.05;;
65751;SDS011;52486;51.098;13.770;2023-06-14T12:27:15;5.88;;;1.85;;
65751;SDS011;52486;51.098;13.770;2023-06-14T12:29:44;2.90;;;2.10;;
65751;SDS011;52486;51.098;13.770;2023-06-14T12:32:09;4.68;;;2.30;;
65751;SDS011;52486;51.098;13.770;2023-06-14T12:34:36;4.20;;;2.20;;
65751;SDS011;52486;51.098;13.770;2023-06-14T12:37:02;3.10;;;2.30;;
65751;SDS011;52486;51.098;13.770;2023-06-14T12:39:29;2.50;;;2.30;;
65751;SDS011;52486;51.098;13.770;2023-06-14T12:41:58;7.15;;;2.20;;
65751;SDS011;52486;51.098;13.770;2023-06-14T12:44:24;9.18;;;2.40;;
65751;SDS011;52486;51.098;13.770;2023-06-14T12:46:50;11.27;;;2.67;;
65751;SDS011;52486;51.098;13.770;2023-06-14T12:49:19;5.32;;;2.40;;
65751;SDS011;52486;51.098;13.770;2023-06-14T12:51:45;3.33;;;2.17;;
65751;SDS011;52486;51.098;13.770;2023-06-14T12:54:10;3.70;;;2.15;;
65751;SDS011;52486;51.098;13.770;2023-06-14T12:56:37;2.28;;;1.88;;
65751;SDS011;52486;51.098;13.770;2023-06-14T12:59:03;1.90;;;1.80;;
65751;SDS011;52486;51.098;13.770;2023-06-14T13:01:29;2.97;;;2.30;;
65751;SDS011;52486;51.098;13.770;2023-06-14T13:03:55;2.00;;;1.80;;
65751;SDS011;52486;51.098;13.770;2023-06-14T13:06:21;2.22;;;1.80;;
65751;SDS011;52486;51.098;13.770;2023-06-14T13:08:47;2.92;;;1.92;;
65751;SDS011;52486;51.098;13.770;2023-06-14T13:11:14;2.75;;;1.80;;
65751;SDS011;52486;51.098;13.770;2023-06-14T13:13:39;5.78;;;1.90;;
65751;SDS011;52486;51.098;13.770;2023-06-14T13:16:05;4.85;;;2.17;;
65751;SDS011;52486;51.098;13.770;2023-06-14T13:18:31;2.83;;;2.20;;
65751;SDS011;52486;51.098;13.770;2023-06-14T13:20:57;2.92;;;1.75;;
65751;SDS011;52486;51.098;13.770;2023-06-14T13:23:22;2.78;;;2.13;;
65751;SDS011;52486;51.098;13.770;2023-06-14T13:25:48;3.40;;;2.13;;
65751;SDS011;52486;51.098;13.770;2023-06-14T13:28:16;3.75;;;2.08;;
65751;SDS011;52486;51.098;13.770;2023-06-14T13:30:42;6.47;;;2.13;;
65751;SDS011;52486;51.098;13.770;2023-06-14T13:33:07;2.28;;;2.08;;
65751;SDS011;52486;51.098;13.770;2023-06-14T13:35:33;3.67;;;1.88;;
65751;SDS011;52486;51.098;13.770;2023-06-14T13:38:00;5.22;;;2.13;;
65751;SDS011;52486;51.098;13.770;2023-06-14T13:40:26;8.45;;;1.95;;
65751;SDS011;52486;51.098;13.770;2023-06-14T13:42:52;3.58;;;2.30;;
65751;SDS011;52486;51.098;13.770;2023-06-14T13:45:17;5.07;;;2.28;;
65751;SDS011;52486;51.098;13.770;2023-06-14T13:47:43;7.13;;;2.50;;
65751;SDS011;52486;51.098;13.770;2023-06-14T13:50:10;2.78;;;1.90;;
65751;SDS011;52486;51.098;13.770;2023-06-14T13:52:36;7.15;;;2.08;;
65751;SDS011;52486;51.098;13.770;2023-06-14T13:55:02;2.58;;;2.05;;
65751;SDS011;52486;51.098;13.770;2023-06-14T13:57:28;6.68;;;2.42;;
65751;SDS011;52486;51.098;13.770;2023-06-14T13:59:54;3.95;;;2.40;;
65751;SDS011;52486;51.098;13.770;2023-06-14T14:02:25;10.75;;;2.55;;
65751;SDS011;52486;51.098;13.770;2023-06-14T14:04:51;8.40;;;2.10;;
65751;SDS011;52486;51.098;13.770;2023-06-14T14:07:18;7.18;;;1.90;;
65751;SDS011;52486;51.098;13.770;2023-06-14T14:09:46;3.33;;;1.90;;
65751;SDS011;52486;51.098;13.770;2023-06-14T14:12:12;10.70;;;2.13;;
65751;SDS011;52486;51.098;13.770;2023-06-14T14:14:39;8.50;;;2.10;;
65751;SDS011;52486;51.098;13.770;2023-06-14T14:17:05;9.68;;;2.00;;
65751;SDS011;52486;51.098;13.770;2023-06-14T14:19:32;3.05;;;1.90;;
65751;SDS011;52486;51.098;13.770;2023-06-14T14:21:58;7.97;;;2.20;;
65751;SDS011;52486;51.098;13.770;2023-06-14T14:24:24;4.68;;;2.30;;
65751;SDS011;52486;51.098;13.770;2023-06-14T14:26:51;3.55;;;1.90;;
65751;SDS011;52486;51.098;13.770;2023-06-14T14:29:18;8.93;;;2.13;;
65751;SDS011;52486;51.098;13.770;2023-06-14T14:31:45;6.72;;;2.25;;
65751;SDS011;52486;51.098;13.770;2023-06-14T14:34:10;11.10;;;2.30;;
65751;SDS011;52486;51.098;13.770;2023-06-14T14:36:36;3.22;;;2.00;;
65751;SDS011;52486;51.098;13.770;2023-06-14T14:39:05;2.38;;;1.70;;
65751;SDS011;52486;51.098;13.770;2023-06-14T14:41:32;6.35;;;2.15;;
65751;SDS011;52486;51.098;13.770;2023-06-14T14:43:57;4.47;;;2.10;;
65751;SDS011;52486;51.098;13.770;2023-06-14T14:46:25;4.30;;;1.88;;
65751;SDS011;52486;51.098;13.770;2023-06-14T14:48:51;3.75;;;2.20;;
65751;SDS011;52486;51.098;13.770;2023-06-14T14:51:17;4.30;;;1.80;;
65751;SDS011;52486;51.098;13.770;2023-06-14T14:53:42;2.40;;;2.05;;